General Aviation Weather

Text Reports

Enter one or more of the following location identifiers separated by a space:

Zip Code, Four-Character ICAO or Three-Character IATA airport codes.

METAR - Aviation Routine Weather Report
KEVM - Eveleth, Minnesota
Updated at 5:12 PM GMT on August 22, 2014 (12:12 PM CDT):
METAR KEVM 221712Z AUTO 00000KT 10SM OVC007 20/18 A3001 RMK AO2
TAF - Terminal Area Forecast
KEVM - Eveleth, Minnesota
Updated at 5:12 PM GMT on August 22, 2014 (12:12 PM CDT):
No TAF is currently available for this location.
Decoded:
No decoded TAF is available.
PIREP - Pilot Weather Report
KEVM - Eveleth, Minnesota
Updated at 5:12 PM GMT on August 22, 2014 (12:12 PM CDT):
No PIREP is currently available for this location.
AIRMET - Airmens Meteorological Information
KEVM - Eveleth, Minnesota
Updated at 5:12 PM GMT on August 22, 2014 (12:12 PM CDT):
No AIRMET is currently available for this location.
SIGMET - Significant Meteorological Information
KEVM - Eveleth, Minnesota
Updated at 5:12 PM GMT on August 22, 2014 (12:12 PM CDT):
No SIGMET is currently available for this location.
NOTAM - Notice to Airmen
KEVM - Eveleth, Minnesota
Updated at 5:12 PM GMT on August 22, 2014 (12:12 PM CDT):
No NOTAM is currently available for this location.
Forecast Area
KEVM - Eveleth, Minnesota
Updated at 5:12 PM GMT on August 22, 2014 (12:12 PM CDT):
No NOTAM is currently available for this location.
Aviation Weather Maps